Lancer, Kentucky
Current Conditions -  °F | °C
As of 3:15 PM on Sunday 21 Dec 2014 (Local Time) from KSJS Reporting Station
Clear Clear  
Wind Chill: 44°   Ceiling: Unl
Heat Index: 44°   Visibility: 10mi
Dew Point: 29°   Wind: 3mph
Humidity: 55%   Direction: 40°NE
Pressure: 30.18"   Gusts: NA
Location:  37.6405°N, 82.8256°W
Report Text: KSJS 212015Z AUTO 04003KT 10SM CLR 07/M02 A3018 RMK AO2 T00661018
Loading
Personal Weather Stations






























Interactive Weather Map New forecast layout! Learn more

10-Day Weather Forecast

Advertisements
Track Severe Weather on mobile